createdAt,value
2019-05-18T00:01:42.960Z,87.70
2019-05-18T00:04:29.067Z,88.40
2019-05-18T00:07:16.500Z,88.50
2019-05-18T00:10:04.846Z,89.50
2019-05-18T00:12:51.880Z,89.60
2019-05-18T00:15:38.961Z,89.20
2019-05-18T00:18:26.074Z,89.30
2019-05-18T00:21:13.330Z,89.20
2019-05-18T00:23:59.402Z,89.30
2019-05-18T00:26:46.608Z,89.30
2019-05-18T00:29:34.105Z,90.00
2019-05-18T00:32:21.262Z,89.50
2019-05-18T00:35:09.428Z,88.70
2019-05-18T00:37:56.606Z,88.60
2019-05-18T00:40:43.936Z,88.50
2019-05-18T00:43:31.360Z,89.10
2019-05-18T00:46:17.428Z,89.80
2019-05-18T00:49:04.798Z,90.50
2019-05-18T00:51:52.147Z,89.90
2019-05-18T00:54:39.267Z,89.30
2019-05-18T00:57:26.387Z,90.60
2019-05-18T01:00:12.582Z,91.20
2019-05-18T01:02:59.462Z,91.50
2019-05-18T01:05:46.788Z,91.80
2019-05-18T01:08:34.197Z,92.00
2019-05-18T01:11:21.031Z,92.30
2019-05-18T01:14:07.179Z,91.90
2019-05-18T01:16:54.233Z,91.90
2019-05-18T01:19:41.585Z,92.10
2019-05-18T01:22:28.981Z,92.20
2019-05-18T01:25:16.692Z,92.50
2019-05-18T01:28:04.126Z,92.40
2019-05-18T01:30:51.261Z,91.70
2019-05-18T01:33:38.627Z,91.90
2019-05-18T01:36:25.808Z,91.70
2019-05-18T01:39:12.939Z,92.20
2019-05-18T01:42:00.284Z,92.10
2019-05-18T01:44:47.476Z,92.50
2019-05-18T01:47:34.828Z,92.40
2019-05-18T01:50:21.910Z,92.50
2019-05-18T01:53:09.602Z,92.20
2019-05-18T01:55:56.462Z,92.40
2019-05-18T01:58:43.889Z,92.80
2019-05-18T02:01:31.123Z,93.20
2019-05-18T02:04:18.293Z,93.30
2019-05-18T02:07:05.543Z,93.50
2019-05-18T02:09:52.737Z,93.50
2019-05-18T02:12:38.857Z,93.50
2019-05-18T02:15:25.771Z,93.20
2019-05-18T02:18:26.908Z,93.30
2019-05-18T02:21:01.793Z,93.20
2019-05-18T02:23:48.555Z,93.00
2019-05-18T02:26:35.795Z,92.80
2019-05-18T02:29:23.098Z,92.70
2019-05-18T02:32:10.448Z,93.00
2019-05-18T02:34:57.653Z,93.10
2019-05-18T02:37:45.043Z,93.10
2019-05-18T02:40:33.214Z,93.50
2019-05-18T02:43:20.320Z,93.30
2019-05-18T02:46:07.768Z,93.00
2019-05-18T02:48:55.010Z,92.40
2019-05-18T02:51:42.137Z,92.30
2019-05-18T02:54:29.259Z,92.00
2019-05-18T02:57:16.217Z,92.00
2019-05-18T03:00:04.945Z,91.90
2019-05-18T03:02:52.186Z,92.00
2019-05-18T03:05:39.306Z,92.20
2019-05-18T03:08:25.937Z,92.20
2019-05-18T03:11:13.012Z,92.10
2019-05-18T03:13:59.051Z,92.40
2019-05-18T03:16:46.028Z,92.90
2019-05-18T03:19:33.404Z,92.80
2019-05-18T03:22:20.527Z,93.10
2019-05-18T03:25:08.499Z,92.80
2019-05-18T03:27:55.777Z,92.80
2019-05-18T03:30:42.928Z,92.50
2019-05-18T03:33:30.631Z,92.90
2019-05-18T03:36:17.791Z,93.40
2019-05-18T03:39:06.113Z,93.60
2019-05-18T03:41:53.270Z,93.80
2019-05-18T03:44:39.558Z,94.00
2019-05-18T03:47:26.700Z,93.70
2019-05-18T03:50:12.701Z,93.70
2019-05-18T03:52:59.777Z,93.80
2019-05-18T03:55:47.272Z,93.90
2019-05-18T03:58:34.503Z,93.10
2019-05-18T04:01:21.481Z,92.90
2019-05-18T04:04:08.782Z,93.10
2019-05-18T04:06:56.057Z,92.80
2019-05-18T04:09:43.396Z,92.50
2019-05-18T04:12:30.661Z,92.50
2019-05-18T04:15:18.033Z,93.40
2019-05-18T04:18:05.255Z,93.60
2019-05-18T04:20:52.435Z,93.40
2019-05-18T04:23:39.693Z,93.40
2019-05-18T04:26:26.844Z,93.80
2019-05-18T04:29:12.967Z,93.00
2019-05-18T04:32:00.552Z,92.90
2019-05-18T04:34:47.625Z,92.80
2019-05-18T04:37:34.810Z,92.80
2019-05-18T04:40:22.061Z,92.80
2019-05-18T04:43:09.427Z,92.80
2019-05-18T04:45:56.766Z,92.60
2019-05-18T04:48:43.721Z,92.70
2019-05-18T04:51:31.035Z,93.10
2019-05-18T04:54:18.091Z,93.10
2019-05-18T04:57:05.630Z,93.30
2019-05-18T04:59:53.354Z,93.30
2019-05-18T05:02:40.244Z,93.30
2019-05-18T05:05:27.305Z,93.20
2019-05-18T05:08:13.935Z,93.10
2019-05-18T05:11:00.020Z,93.00
2019-05-18T05:13:47.084Z,92.80
2019-05-18T05:16:34.302Z,92.80
2019-05-18T05:19:21.340Z,92.80
2019-05-18T05:22:08.393Z,93.00
2019-05-18T05:24:55.554Z,93.10
2019-05-18T05:27:42.853Z,93.10
2019-05-18T05:30:30.051Z,93.10
2019-05-18T05:33:17.350Z,93.00
2019-05-18T05:36:04.711Z,92.90
2019-05-18T05:38:51.786Z,92.50
2019-05-18T05:41:38.865Z,92.30
2019-05-18T05:44:25.802Z,91.70
2019-05-18T05:47:13.076Z,91.60
2019-05-18T05:49:59.164Z,91.50
2019-05-18T05:52:46.626Z,91.70
2019-05-18T05:55:33.914Z,91.80
2019-05-18T05:58:21.059Z,92.20
2019-05-18T06:01:08.222Z,91.90
2019-05-18T06:03:55.476Z,92.00
2019-05-18T06:06:42.618Z,91.90
2019-05-18T06:09:29.679Z,91.90
2019-05-18T06:12:17.136Z,91.80
2019-05-18T06:15:09.063Z,91.60
2019-05-18T06:17:56.004Z,91.60
2019-05-18T06:20:50.873Z,91.00
2019-05-18T06:23:31.173Z,91.00
2019-05-18T06:26:18.130Z,90.60
2019-05-18T06:29:05.606Z,90.30
2019-05-18T06:31:52.904Z,89.70
2019-05-18T06:34:40.682Z,90.10
2019-05-18T06:37:27.710Z,90.10
2019-05-18T06:40:14.962Z,89.60
2019-05-18T06:43:02.122Z,89.50
2019-05-18T06:45:50.128Z,87.20
2019-05-18T06:48:37.233Z,85.80
2019-05-18T06:51:24.600Z,87.70
2019-05-18T06:54:11.935Z,87.90
2019-05-18T06:57:00.939Z,87.20
2019-05-18T06:59:48.424Z,86.40
2019-05-18T07:02:35.521Z,86.60
2019-05-18T07:05:23.184Z,87.50
2019-05-18T07:08:10.413Z,87.60
2019-05-18T07:10:57.869Z,87.50
2019-05-18T07:13:44.965Z,87.70
2019-05-18T07:16:32.382Z,86.10
2019-05-18T07:19:19.332Z,84.40
2019-05-18T07:22:06.490Z,84.00
2019-05-18T07:24:53.844Z,84.60
2019-05-18T07:27:41.034Z,85.60
2019-05-18T07:30:28.165Z,83.80
2019-05-18T07:33:15.968Z,83.80
2019-05-18T07:36:03.296Z,83.30
2019-05-18T07:38:50.683Z,85.10
2019-05-18T07:41:46.391Z,84.10
2019-05-18T07:44:26.972Z,82.00
2019-05-18T07:47:14.121Z,81.00
2019-05-18T07:50:01.407Z,81.00
2019-05-18T07:52:48.955Z,81.10
2019-05-18T07:55:36.125Z,80.90
2019-05-18T07:58:23.264Z,79.00
2019-05-18T08:01:10.415Z,78.90
2019-05-18T08:03:57.354Z,81.20
2019-05-18T08:06:44.769Z,81.40
2019-05-18T08:09:31.969Z,80.70
2019-05-18T08:12:19.271Z,76.00
2019-05-18T08:15:10.210Z,77.10
2019-05-18T08:17:56.879Z,74.20
2019-05-18T08:20:47.023Z,74.40
2019-05-18T08:23:34.186Z,73.30
2019-05-18T08:26:21.894Z,74.20
2019-05-18T08:29:09.412Z,74.10
2019-05-18T08:31:56.803Z,69.80
2019-05-18T08:34:44.368Z,67.10
2019-05-18T08:37:31.569Z,64.30
2019-05-18T08:40:20.241Z,66.80
2019-05-18T08:43:07.690Z,68.00
2019-05-18T08:45:55.251Z,67.60
2019-05-18T08:48:42.832Z,67.20
2019-05-18T08:51:29.969Z,68.20
2019-05-18T08:54:16.969Z,69.00
2019-05-18T08:57:04.423Z,67.20
2019-05-18T08:59:51.613Z,67.20
2019-05-18T09:02:38.717Z,66.20
2019-05-18T09:05:25.960Z,67.20
2019-05-18T09:08:13.373Z,66.30
2019-05-18T09:11:00.878Z,67.70
2019-05-18T09:13:48.415Z,65.00
2019-05-18T09:16:35.905Z,63.40
2019-05-18T09:19:23.446Z,64.20
2019-05-18T09:22:22.530Z,66.00
2019-05-18T09:25:00.668Z,64.70
2019-05-18T09:27:47.679Z,64.40
2019-05-18T09:30:34.817Z,64.60
2019-05-18T09:33:22.454Z,61.70
2019-05-18T09:36:09.826Z,64.70
2019-05-18T09:38:57.012Z,66.40
2019-05-18T09:41:44.360Z,65.60
2019-05-18T09:44:31.673Z,65.60
2019-05-18T09:47:18.849Z,65.30
2019-05-18T09:50:06.433Z,63.30
2019-05-18T09:52:54.381Z,62.20
2019-05-18T09:55:41.953Z,58.50
2019-05-18T09:58:29.237Z,60.10
2019-05-18T10:01:16.645Z,63.50
2019-05-18T10:04:03.997Z,59.80
2019-05-18T10:06:51.138Z,58.50
2019-05-18T10:09:39.497Z,58.00
2019-05-18T10:12:27.013Z,58.80
2019-05-18T10:15:14.741Z,58.00
2019-05-18T10:18:01.934Z,57.40
2019-05-18T10:20:49.228Z,56.10
2019-05-18T10:23:36.487Z,53.70
2019-05-18T10:26:23.564Z,53.00
2019-05-18T10:29:10.786Z,54.50
2019-05-18T10:31:58.189Z,55.20
2019-05-18T10:34:45.445Z,55.10
2019-05-18T10:37:32.609Z,52.90
2019-05-18T10:40:20.008Z,52.60
2019-05-18T10:43:06.792Z,47.30
2019-05-18T10:45:54.088Z,49.20
2019-05-18T10:48:40.993Z,52.50
2019-05-18T10:51:28.173Z,52.80
2019-05-18T10:54:15.597Z,51.10
2019-05-18T10:57:02.702Z,50.10
2019-05-18T10:59:50.097Z,51.50
2019-05-18T11:02:37.951Z,50.60
2019-05-18T11:05:25.129Z,49.50
2019-05-18T11:08:11.991Z,49.00
2019-05-18T11:10:59.499Z,48.20
2019-05-18T11:13:46.264Z,47.60
2019-05-18T11:16:33.343Z,47.40
2019-05-18T11:19:21.639Z,47.30
2019-05-18T11:22:08.682Z,47.80
2019-05-18T11:24:56.002Z,49.10
2019-05-18T11:27:43.464Z,45.00
2019-05-18T11:30:31.178Z,49.70
2019-05-18T11:33:18.314Z,48.70
2019-05-18T11:36:05.444Z,49.20
2019-05-18T11:38:52.711Z,51.60
2019-05-18T11:41:40.150Z,49.80
2019-05-18T11:44:26.998Z,51.60
2019-05-18T11:47:14.125Z,53.30
2019-05-18T11:50:01.750Z,50.40
2019-05-18T11:52:49.127Z,51.00
2019-05-18T11:55:38.479Z,50.40
2019-05-18T11:58:25.707Z,50.00
2019-05-18T12:01:13.243Z,47.20
2019-05-18T12:04:00.584Z,45.40
2019-05-18T12:06:47.822Z,44.50
2019-05-18T12:09:35.180Z,48.50
2019-05-18T12:12:22.644Z,46.00
2019-05-18T12:15:11.417Z,46.20
2019-05-18T12:17:58.153Z,46.90
2019-05-18T12:20:46.855Z,47.80
2019-05-18T12:23:34.276Z,48.30
2019-05-18T12:26:21.468Z,52.00
2019-05-18T12:29:08.942Z,51.20
2019-05-18T12:31:56.866Z,50.20
2019-05-18T12:34:45.503Z,47.70
2019-05-18T12:37:32.741Z,49.90
2019-05-18T12:40:23.061Z,44.30
2019-05-18T12:43:10.371Z,47.40
2019-05-18T12:45:57.392Z,44.10
2019-05-18T12:48:44.891Z,47.00
2019-05-18T12:51:32.187Z,46.50
2019-05-18T12:54:29.287Z,45.30
2019-05-18T12:57:08.404Z,46.20
2019-05-18T12:59:56.137Z,45.20
2019-05-18T13:02:43.328Z,46.60
2019-05-18T13:05:30.464Z,45.50
2019-05-18T13:08:17.952Z,45.00
2019-05-18T13:11:05.001Z,39.50
2019-05-18T13:13:52.034Z,41.30
2019-05-18T13:16:39.650Z,44.00
2019-05-18T13:19:26.529Z,40.40
2019-05-18T13:22:13.792Z,44.30
2019-05-18T13:25:00.927Z,45.70
2019-05-18T13:27:48.089Z,46.00
2019-05-18T13:30:35.406Z,42.90
2019-05-18T13:33:22.774Z,43.30
2019-05-18T13:36:10.225Z,43.60
2019-05-18T13:38:57.596Z,43.60
2019-05-18T13:41:44.968Z,41.60
2019-05-18T13:44:32.285Z,43.00
2019-05-18T13:47:19.585Z,44.20
2019-05-18T13:50:07.317Z,40.70
2019-05-18T13:52:54.222Z,44.10
2019-05-18T13:55:41.332Z,41.50
2019-05-18T13:58:28.422Z,41.80
2019-05-18T14:01:15.829Z,40.40
2019-05-18T14:04:03.013Z,38.90
2019-05-18T14:06:50.146Z,40.70
2019-05-18T14:09:37.863Z,36.80
2019-05-18T14:12:25.025Z,35.90
2019-05-18T14:15:18.488Z,39.30
2019-05-18T14:18:05.986Z,37.60
2019-05-18T14:20:53.120Z,38.30
2019-05-18T14:23:40.949Z,39.00
2019-05-18T14:26:28.121Z,40.90
2019-05-18T14:29:15.398Z,39.90
2019-05-18T14:32:02.805Z,39.70
2019-05-18T14:34:49.937Z,37.70
2019-05-18T14:37:37.357Z,38.00
2019-05-18T14:40:24.467Z,39.20
2019-05-18T14:43:12.125Z,36.70
2019-05-18T14:45:59.487Z,36.10
2019-05-18T14:48:46.926Z,35.80
2019-05-18T14:51:34.490Z,39.40
2019-05-18T14:54:25.280Z,39.30
2019-05-18T14:57:11.004Z,34.60
2019-05-18T15:00:01.899Z,36.00
2019-05-18T15:02:46.957Z,38.10
2019-05-18T15:05:33.953Z,39.60
2019-05-18T15:08:21.091Z,39.00
2019-05-18T15:11:08.272Z,44.50
2019-05-18T15:13:55.401Z,48.80
2019-05-18T15:16:42.304Z,50.90
2019-05-18T15:19:29.441Z,51.00
2019-05-18T15:22:16.722Z,52.40
2019-05-18T15:25:04.285Z,52.90
2019-05-18T15:27:51.717Z,51.60
2019-05-18T15:30:38.693Z,53.40
2019-05-18T15:33:26.521Z,49.60
2019-05-18T15:36:14.356Z,46.10
2019-05-18T15:39:02.102Z,46.40
2019-05-18T15:41:48.913Z,49.00
2019-05-18T15:44:35.817Z,45.50
2019-05-18T15:47:23.475Z,48.40
2019-05-18T15:50:11.376Z,49.30
2019-05-18T15:52:58.516Z,47.50
2019-05-18T15:55:45.937Z,45.90
2019-05-18T15:58:33.091Z,45.70
2019-05-18T16:01:20.458Z,45.40
2019-05-18T16:04:07.577Z,45.70
2019-05-18T16:06:55.018Z,45.80
2019-05-18T16:09:41.908Z,47.60
2019-05-18T16:12:28.838Z,46.40
2019-05-18T16:15:17.889Z,46.00
2019-05-18T16:18:04.976Z,46.20
2019-05-18T16:20:52.236Z,44.60
2019-05-18T16:23:39.561Z,43.30
2019-05-18T16:26:27.270Z,43.70
2019-05-18T16:29:14.088Z,42.10
2019-05-18T16:32:01.180Z,41.70
2019-05-18T16:34:48.427Z,41.60
2019-05-18T16:37:35.613Z,42.50
2019-05-18T16:40:24.327Z,43.90
2019-05-18T16:43:11.541Z,45.80
2019-05-18T16:45:58.879Z,46.20
2019-05-18T16:48:46.060Z,44.80
2019-05-18T16:51:33.414Z,46.20
2019-05-18T16:54:20.822Z,45.80
2019-05-18T16:57:08.061Z,46.70
2019-05-18T16:59:55.750Z,46.90
2019-05-18T17:02:42.778Z,47.40
2019-05-18T17:05:29.641Z,48.50
2019-05-18T17:08:16.902Z,47.10
2019-05-18T17:11:04.205Z,47.70
2019-05-18T17:13:51.351Z,47.50
2019-05-18T17:16:38.608Z,46.90
2019-05-18T17:19:25.885Z,46.80
2019-05-18T17:22:13.143Z,46.70
2019-05-18T17:25:00.185Z,47.30
2019-05-18T17:27:47.563Z,46.20
2019-05-18T17:30:34.680Z,46.30
2019-05-18T17:33:21.696Z,47.10
2019-05-18T17:36:09.403Z,47.10
2019-05-18T17:38:56.664Z,49.30
2019-05-18T17:41:43.868Z,49.90
2019-05-18T17:44:31.198Z,49.20
2019-05-18T17:47:18.658Z,49.70
2019-05-18T17:50:10.693Z,50.10
2019-05-18T17:52:57.808Z,51.00
2019-05-18T17:55:44.882Z,52.40
2019-05-18T17:58:32.178Z,53.90
2019-05-18T18:01:19.069Z,55.10
2019-05-18T18:04:06.071Z,54.50
2019-05-18T18:06:53.413Z,55.10
2019-05-18T18:09:40.959Z,55.00
2019-05-18T18:12:28.004Z,55.90
2019-05-18T18:15:16.007Z,55.90
2019-05-18T18:18:03.458Z,56.20
2019-05-18T18:20:50.384Z,56.00
2019-05-18T18:23:37.778Z,55.60
2019-05-18T18:26:25.186Z,56.60
2019-05-18T18:29:12.720Z,55.90
2019-05-18T18:31:59.896Z,57.80
2019-05-18T18:34:47.107Z,58.10
2019-05-18T18:37:34.263Z,56.50
2019-05-18T18:40:21.122Z,58.30
2019-05-18T18:43:08.300Z,57.60
2019-05-18T18:45:55.400Z,58.80
2019-05-18T18:48:41.991Z,61.20
2019-05-18T18:51:28.950Z,64.20
2019-05-18T18:54:15.856Z,65.40
2019-05-18T18:57:02.947Z,65.90
2019-05-18T18:59:49.792Z,68.30
2019-05-18T19:02:36.705Z,69.10
2019-05-18T19:05:23.930Z,72.20
2019-05-18T19:08:10.884Z,73.30
2019-05-18T19:10:57.734Z,74.00
2019-05-18T19:13:45.887Z,73.80
2019-05-18T19:16:33.224Z,73.40
2019-05-18T19:19:20.609Z,73.80
2019-05-18T19:22:07.892Z,73.40
2019-05-18T19:24:55.894Z,73.90
2019-05-18T19:27:53.994Z,74.80
2019-05-18T19:30:31.950Z,74.30
2019-05-18T19:33:19.274Z,74.10
2019-05-18T19:36:05.319Z,73.80
2019-05-18T19:38:52.846Z,74.30
2019-05-18T19:41:40.051Z,74.20
2019-05-18T19:44:26.925Z,74.40
2019-05-18T19:47:13.823Z,74.30
2019-05-18T19:50:01.301Z,73.80
2019-05-18T19:52:48.656Z,74.50
2019-05-18T19:55:35.728Z,75.40
2019-05-18T19:58:23.053Z,76.70
2019-05-18T20:01:10.168Z,77.60
2019-05-18T20:03:56.790Z,77.90
2019-05-18T20:06:43.925Z,78.40
2019-05-18T20:09:31.129Z,80.00
2019-05-18T20:12:17.237Z,81.90
2019-05-18T20:15:09.139Z,84.40
2019-05-18T20:17:53.820Z,87.60
2019-05-18T20:20:41.198Z,88.50
2019-05-18T20:23:28.651Z,90.00
2019-05-18T20:26:15.483Z,89.90
2019-05-18T20:29:02.874Z,89.00
2019-05-18T20:31:50.240Z,89.70
2019-05-18T20:34:37.427Z,91.00
2019-05-18T20:37:24.594Z,90.70
2019-05-18T20:40:11.911Z,91.50
2019-05-18T20:42:59.232Z,91.60
2019-05-18T20:45:46.603Z,90.90
2019-05-18T20:48:33.829Z,90.90
2019-05-18T20:51:20.954Z,91.60
2019-05-18T20:54:08.212Z,91.80
2019-05-18T20:56:55.489Z,90.60
2019-05-18T20:59:42.601Z,91.30
2019-05-18T21:02:29.529Z,91.50
2019-05-18T21:05:16.745Z,91.80
2019-05-18T21:08:04.451Z,92.00
2019-05-18T21:10:51.600Z,91.80
2019-05-18T21:13:38.487Z,91.50
2019-05-18T21:16:25.928Z,91.00
2019-05-18T21:19:13.317Z,91.30
2019-05-18T21:22:00.527Z,91.50
2019-05-18T21:24:47.735Z,91.40
2019-05-18T21:27:35.300Z,91.80
2019-05-18T21:30:21.427Z,92.00
2019-05-18T21:33:08.621Z,92.30
2019-05-18T21:35:56.111Z,91.70
2019-05-18T21:38:43.490Z,90.80
2019-05-18T21:41:30.897Z,90.90
2019-05-18T21:44:19.176Z,90.30
2019-05-18T21:47:06.659Z,90.00
2019-05-18T21:49:53.613Z,89.80
2019-05-18T21:52:42.134Z,90.00
2019-05-18T21:55:29.742Z,90.20
2019-05-18T21:58:15.774Z,90.60
2019-05-18T22:01:03.035Z,90.20
2019-05-18T22:03:50.370Z,90.10
2019-05-18T22:06:37.481Z,90.60
2019-05-18T22:09:24.759Z,88.00
2019-05-18T22:12:12.347Z,87.20
2019-05-18T22:14:59.757Z,86.80
2019-05-18T22:18:04.918Z,88.90
2019-05-18T22:20:52.146Z,90.30
2019-05-18T22:23:38.216Z,90.90
2019-05-18T22:26:25.357Z,91.20
2019-05-18T22:29:12.460Z,91.50
2019-05-18T22:31:59.708Z,91.30
2019-05-18T22:34:47.224Z,91.70
2019-05-18T22:37:34.423Z,91.70
2019-05-18T22:40:21.589Z,92.00
2019-05-18T22:43:08.970Z,92.10
2019-05-18T22:45:55.105Z,91.90
2019-05-18T22:48:41.975Z,91.90
2019-05-18T22:51:29.692Z,92.00
2019-05-18T22:54:16.612Z,92.00
2019-05-18T22:57:03.680Z,91.90
2019-05-18T22:59:50.816Z,91.70
2019-05-18T23:02:37.695Z,91.80
2019-05-18T23:05:24.600Z,91.50
2019-05-18T23:08:12.002Z,91.80
2019-05-18T23:10:59.020Z,91.80
2019-05-18T23:13:46.172Z,92.40
2019-05-18T23:16:33.401Z,92.60
2019-05-18T23:19:20.751Z,92.80
2019-05-18T23:22:08.141Z,92.80
2019-05-18T23:24:55.286Z,93.00
2019-05-18T23:27:42.500Z,93.20
2019-05-18T23:30:28.592Z,93.30
2019-05-18T23:33:15.498Z,93.30
2019-05-18T23:36:01.681Z,93.30
2019-05-18T23:38:48.735Z,93.50
2019-05-18T23:41:34.831Z,93.30
2019-05-18T23:44:22.376Z,93.20
2019-05-18T23:47:09.265Z,93.10
2019-05-18T23:49:56.436Z,93.20
2019-05-18T23:52:43.519Z,93.40
2019-05-18T23:55:31.099Z,93.60
2019-05-18T23:58:17.154Z,93.80
